Wetterstation Vordersexau
Wetterdaten: Woche 30.10.23 - 05.11.23 (KW44)
Datum Zeit Temp. A. Feuchte A. Luftdruck Regen Wind Richtung Taupunkt Windchill Windben
30.10.2023 00:00 12,8 C 96 % 1000,7 hPa 0,0 l/m 0,0 km/h (0 Bft) N 12,2 C 12,8 C 0,0 km/h (0 Bft)
30.10.2023 01:00 13,1 C 96 % 1000,8 hPa 0,0 l/m 0,0 km/h (0 Bft) N 12,5 C 13,1 C 0,0 km/h (0 Bft)
30.10.2023 02:00 12,0 C 97 % 1001,6 hPa 0,0 l/m 0,0 km/h (0 Bft) N 11,5 C 12,0 C 0,0 km/h (0 Bft)
30.10.2023 03:00 12,2 C 98 % 1001,5 hPa 0,0 l/m 0,0 km/h (0 Bft) N 11,9 C 12,2 C 0,0 km/h (0 Bft)
30.10.2023 04:00 11,6 C 98 % 1000,8 hPa 0,0 l/m 0,0 km/h (0 Bft) N 11,3 C 11,6 C 0,0 km/h (0 Bft)
30.10.2023 05:00 12,1 C 98 % 1000,4 hPa 0,0 l/m 0,0 km/h (0 Bft) O-SO 11,8 C 12,1 C 0,0 km/h (0 Bft)
30.10.2023 06:00 12,3 C 95 % 1000,1 hPa 0,0 l/m 2,5 km/h (1 Bft) N 11,5 C 12,3 C 3,6 km/h (1 Bft)
30.10.2023 07:00 11,7 C 96 % 999,9 hPa 0,0 l/m 0,0 km/h (0 Bft) N 11,1 C 11,7 C 0,0 km/h (0 Bft)
30.10.2023 08:00 9,7 C 97 % 999,9 hPa 0,0 l/m 0,0 km/h (0 Bft) N 9,2 C 9,7 C 0,0 km/h (0 Bft)
30.10.2023 09:00 12,5 C 94 % 999,9 hPa 0,0 l/m 0,0 km/h (0 Bft) N 11,6 C 12,5 C 0,0 km/h (0 Bft)
30.10.2023 10:00 13,6 C 92 % 999,9 hPa 0,0 l/m 0,0 km/h (0 Bft) N-NW 12,3 C 13,6 C 2,5 km/h (1 Bft)
30.10.2023 11:00 13,9 C 91 % 999,3 hPa 0,0 l/m 1,1 km/h (1 Bft) NW 12,5 C 13,9 C 2,5 km/h (1 Bft)
30.10.2023 12:00 13,3 C 95 % 998,6 hPa 0,0 l/m 1,1 km/h (1 Bft) NW 12,5 C 13,3 C 3,6 km/h (1 Bft)
30.10.2023 13:00 13,7 C 94 % 997,7 hPa 0,0 l/m 1,1 km/h (1 Bft) N 12,8 C 13,7 C 3,6 km/h (1 Bft)
30.10.2023 14:00 14,4 C 91 % 997,0 hPa 0,0 l/m 0,0 km/h (0 Bft) NW 12,9 C 14,4 C 0,0 km/h (0 Bft)
30.10.2023 15:00 14,7 C 91 % 995,1 hPa 0,0 l/m 1,1 km/h (1 Bft) NW 13,2 C 14,7 C 3,6 km/h (1 Bft)
30.10.2023 16:00 14,0 C 95 % 996,0 hPa 0,3 l/m 1,1 km/h (1 Bft) N 13,2 C 14,0 C 2,5 km/h (1 Bft)
30.10.2023 17:00 13,8 C 96 % 996,1 hPa 0,3 l/m 0,0 km/h (0 Bft) SO 13,2 C 13,8 C 0,0 km/h (0 Bft)
30.10.2023 18:00 14,0 C 87 % 995,8 hPa 0,0 l/m 2,5 km/h (1 Bft) SO 11,9 C 14,0 C 3,6 km/h (1 Bft)
30.10.2023 19:00 13,2 C 92 % 996,2 hPa 1,8 l/m 5,0 km/h (1 Bft) W-SW 11,9 C 13,2 C 7,2 km/h (2 Bft)
30.10.2023 20:00 12,8 C 91 % 996,3 hPa 2,7 l/m 9,7 km/h (2 Bft) SW 11,4 C 10,8 C 17,3 km/h (3 Bft)
30.10.2023 21:00 12,1 C 96 % 996,7 hPa 2,7 l/m 6,1 km/h (2 Bft) N 11,5 C 12,1 C 11,2 km/h (2 Bft)
30.10.2023 22:00 11,6 C 95 % 996,3 hPa 1,5 l/m 0,0 km/h (0 Bft) S-SO 10,8 C 11,6 C 2,5 km/h (1 Bft)
30.10.2023 23:00 11,7 C 94 % 996,9 hPa 0,3 l/m 5,0 km/h (1 Bft) S-SW 10,8 C 11,7 C 9,7 km/h (2 Bft)
31.10.2023 00:00 12,1 C 91 % 998,2 hPa 0,9 l/m 9,7 km/h (2 Bft) S-SW 10,7 C 10,1 C 13,3 km/h (3 Bft)
31.10.2023 01:00 11,9 C 89 % 998,5 hPa 0,0 l/m 8,6 km/h (2 Bft) SW 10,1 C 10,5 C 18,4 km/h (3 Bft)
31.10.2023 02:00 11,3 C 88 % 998,7 hPa 0,0 l/m 7,2 km/h (2 Bft) W-SW 9,4 C 10,8 C 14,8 km/h (3 Bft)
31.10.2023 03:00 11,2 C 89 % 998,6 hPa 0,0 l/m 9,7 km/h (2 Bft) W 9,5 C 9,1 C 14,8 km/h (3 Bft)
31.10.2023 04:00 10,6 C 93 % 999,4 hPa 0,0 l/m 7,2 km/h (2 Bft) W-SW 9,5 C 10,0 C 11,2 km/h (2 Bft)
31.10.2023 05:00 10,3 C 92 % 1000,3 hPa 1,5 l/m 7,2 km/h (2 Bft) W-SW 9,1 C 9,7 C 11,2 km/h (2 Bft)
31.10.2023 06:00 10,4 C 90 % 1000,4 hPa 0,0 l/m 6,1 km/h (2 Bft) W-SW 8,8 C 10,4 C 9,7 km/h (2 Bft)
31.10.2023 07:00 10,8 C 87 % 1000,9 hPa 0,0 l/m 8,6 km/h (2 Bft) SW 8,7 C 9,3 C 17,3 km/h (3 Bft)
31.10.2023 08:00 10,8 C 86 % 1001,1 hPa 0,0 l/m 8,6 km/h (2 Bft) S-SW 8,6 C 9,3 C 14,8 km/h (3 Bft)
31.10.2023 09:00 11,1 C 86 % 1001,6 hPa 0,0 l/m 7,2 km/h (2 Bft) SW 8,8 C 10,5 C 9,7 km/h (2 Bft)
31.10.2023 10:00 11,4 C 86 % 1002,5 hPa 0,0 l/m 13,3 km/h (3 Bft) W-SW 9,1 C 7,5 C 20,9 km/h (4 Bft)
31.10.2023 11:00 12,0 C 85 % 1002,6 hPa 0,0 l/m 8,6 km/h (2 Bft) W-SW 9,6 C 10,6 C 14,8 km/h (3 Bft)
31.10.2023 12:00 12,9 C 82 % 1002,5 hPa 0,0 l/m 8,6 km/h (2 Bft) W 9,9 C 11,5 C 14,8 km/h (3 Bft)
31.10.2023 13:00 13,9 C 80 % 1002,5 hPa 0,0 l/m 11,2 km/h (2 Bft) W-SW 10,5 C 11,3 C 14,8 km/h (3 Bft)
31.10.2023 14:00 12,8 C 81 % 1002,9 hPa 0,0 l/m 5,0 km/h (1 Bft) S-SW 9,6 C 12,8 C 7,2 km/h (2 Bft)
31.10.2023 15:00 12,1 C 86 % 1003,4 hPa 0,0 l/m 8,6 km/h (2 Bft) W-SW 9,8 C 10,7 C 13,3 km/h (3 Bft)
31.10.2023 16:00 12,3 C 87 % 1004,1 hPa 0,0 l/m 8,6 km/h (2 Bft) SW 10,2 C 10,9 C 11,2 km/h (2 Bft)
31.10.2023 17:00 12,5 C 85 % 1005,1 hPa 0,0 l/m 8,6 km/h (2 Bft) W 10,0 C 11,1 C 11,2 km/h (2 Bft)
31.10.2023 18:00 12,1 C 87 % 1005,8 hPa 0,0 l/m 9,7 km/h (2 Bft) W-SW 10,0 C 10,1 C 13,3 km/h (3 Bft)
31.10.2023 19:00 11,3 C 93 % 1006,9 hPa 0,6 l/m 2,5 km/h (1 Bft) W 10,2 C 11,3 C 3,6 km/h (1 Bft)
31.10.2023 20:00 12,1 C 87 % 1007,6 hPa 0,0 l/m 6,1 km/h (2 Bft) SO 10,0 C 12,1 C 9,7 km/h (2 Bft)
31.10.2023 21:00 12,1 C 85 % 1007,8 hPa 0,0 l/m 8,6 km/h (2 Bft) W-SW 9,7 C 10,7 C 13,3 km/h (3 Bft)
31.10.2023 22:00 12,7 C 81 % 1008,1 hPa 0,0 l/m 5,0 km/h (1 Bft) S-SW 9,5 C 12,7 C 7,2 km/h (2 Bft)
31.10.2023 23:00 12,5 C 79 % 1007,5 hPa 0,0 l/m 1,1 km/h (1 Bft) S-SW 9,0 C 12,5 C 2,5 km/h (1 Bft)
01.11.2023 00:00 11,1 C 85 % 1007,4 hPa 0,0 l/m 0,0 km/h (0 Bft) N 8,7 C 11,1 C 2,5 km/h (1 Bft)
01.11.2023 01:00 10,3 C 89 % 1007,1 hPa 0,0 l/m 0,0 km/h (0 Bft) S-SO 8,6 C 10,3 C 0,0 km/h (0 Bft)
01.11.2023 02:00 9,7 C 90 % 1006,8 hPa 0,0 l/m 2,5 km/h (1 Bft) S-SO 8,1 C 9,7 C 3,6 km/h (1 Bft)
01.11.2023 03:00 8,9 C 93 % 1006,5 hPa 0,0 l/m 1,1 km/h (1 Bft) S-SO 7,8 C 8,9 C 2,5 km/h (1 Bft)
01.11.2023 04:00 7,9 C 96 % 1005,9 hPa 0,0 l/m 2,5 km/h (1 Bft) N 7,3 C 7,9 C 6,1 km/h (2 Bft)
01.11.2023 05:00 7,8 C 95 % 1005,4 hPa 0,0 l/m 0,0 km/h (0 Bft) N 7,0 C 7,8 C 2,5 km/h (1 Bft)
01.11.2023 06:00 6,8 C 97 % 1004,8 hPa 0,0 l/m 0,0 km/h (0 Bft) S-SO 6,4 C 6,8 C 2,5 km/h (1 Bft)
01.11.2023 07:00 6,8 C 97 % 1004,4 hPa 0,0 l/m 1,1 km/h (1 Bft) N 6,4 C 6,8 C 2,5 km/h (1 Bft)
01.11.2023 08:00 6,9 C 97 % 1003,8 hPa 0,0 l/m 0,0 km/h (0 Bft) S-SO 6,5 C 6,9 C 0,0 km/h (0 Bft)
01.11.2023 09:00 8,5 C 92 % 1003,4 hPa 0,0 l/m 3,6 km/h (1 Bft) N 7,3 C 8,5 C 6,1 km/h (2 Bft)
01.11.2023 10:00 11,3 C 86 % 1003,4 hPa 0,0 l/m 0,0 km/h (0 Bft) S-SO 9,0 C 11,3 C 0,0 km/h (0 Bft)
01.11.2023 11:00 14,6 C 76 % 1003,1 hPa 0,0 l/m 6,1 km/h (2 Bft) S-SO 10,4 C 14,6 C 7,2 km/h (2 Bft)
01.11.2023 12:00 14,8 C 81 % 1002,8 hPa 0,0 l/m 5,0 km/h (1 Bft) N 11,6 C 14,8 C 6,1 km/h (2 Bft)
01.11.2023 13:00 16,0 C 76 % 1001,9 hPa 0,0 l/m 0,0 km/h (0 Bft) W 11,8 C 16,0 C 0,0 km/h (0 Bft)
01.11.2023 14:00 17,1 C 54 % 1001,0 hPa 0,0 l/m 9,7 km/h (2 Bft) W-SW 7,7 C 15,6 C 13,3 km/h (3 Bft)
01.11.2023 15:00 16,4 C 62 % 1000,4 hPa 0,0 l/m 2,5 km/h (1 Bft) S-SW 9,1 C 16,4 C 2,5 km/h (1 Bft)
01.11.2023 16:00 16,2 C 51 % 1000,3 hPa 0,0 l/m 5,0 km/h (1 Bft) SW 6,1 C 16,2 C 7,2 km/h (2 Bft)
01.11.2023 17:00 15,5 C 55 % 999,7 hPa 0,0 l/m 2,5 km/h (1 Bft) W-SW 6,5 C 15,5 C 6,1 km/h (2 Bft)
01.11.2023 18:00 15,6 C 56 % 1000,0 hPa 0,0 l/m 7,2 km/h (2 Bft) S-SW 6,9 C 15,2 C 11,2 km/h (2 Bft)
01.11.2023 19:00 12,0 C 84 % 1001,0 hPa 0,0 l/m 5,0 km/h (1 Bft) S-SW 9,4 C 12,0 C 7,2 km/h (2 Bft)
01.11.2023 20:00 13,9 C 64 % 1000,9 hPa 0,0 l/m 11,2 km/h (2 Bft) S-SW 7,2 C 11,3 C 20,9 km/h (4 Bft)
01.11.2023 21:00 12,8 C 70 % 1000,1 hPa 0,0 l/m 6,1 km/h (2 Bft) SW 7,5 C 12,8 C 11,2 km/h (2 Bft)
01.11.2023 22:00 12,0 C 73 % 999,8 hPa 0,0 l/m 2,5 km/h (1 Bft) W-SW 7,3 C 12,0 C 3,6 km/h (1 Bft)
01.11.2023 23:00 12,0 C 69 % 998,8 hPa 0,0 l/m 1,1 km/h (1 Bft) SO 6,5 C 12,0 C 2,5 km/h (1 Bft)
02.11.2023 00:00 11,5 C 68 % 997,2 hPa 0,0 l/m 2,5 km/h (1 Bft) O 5,8 C 11,5 C 6,1 km/h (2 Bft)
02.11.2023 01:00 8,6 C 82 % 995,8 hPa 0,0 l/m 2,5 km/h (1 Bft) O-NO 5,7 C 8,6 C 3,6 km/h (1 Bft)
02.11.2023 02:00 8,9 C 80 % 993,9 hPa 0,0 l/m 2,5 km/h (1 Bft) NO 5,6 C 8,9 C 3,6 km/h (1 Bft)
02.11.2023 03:00 10,0 C 76 % 991,8 hPa 0,0 l/m 2,5 km/h (1 Bft) SW 6,0 C 10,0 C 3,6 km/h (1 Bft)
02.11.2023 04:00 14,6 C 59 % 990,9 hPa 0,0 l/m 9,7 km/h (2 Bft) S-SO 6,7 C 12,8 C 14,8 km/h (3 Bft)
02.11.2023 05:00 12,9 C 70 % 988,5 hPa 0,0 l/m 3,6 km/h (1 Bft) S-SO 7,6 C 12,9 C 6,1 km/h (2 Bft)
02.11.2023 06:00 14,2 C 60 % 987,1 hPa 0,0 l/m 14,8 km/h (3 Bft) SO 6,5 C 10,3 C 18,4 km/h (3 Bft)
02.11.2023 07:00 12,5 C 78 % 987,0 hPa 0,3 l/m 1,1 km/h (1 Bft) N 8,8 C 12,5 C 2,5 km/h (1 Bft)
02.11.2023 08:00 10,2 C 94 % 987,5 hPa 1,5 l/m 0,0 km/h (0 Bft) SO 9,3 C 10,2 C 2,5 km/h (1 Bft)
02.11.2023 09:00 11,4 C 88 % 986,5 hPa 1,2 l/m 2,5 km/h (1 Bft) S-SW 9,5 C 11,4 C 6,1 km/h (2 Bft)
02.11.2023 10:00 11,8 C 89 % 987,3 hPa 0,9 l/m 8,6 km/h (2 Bft) S 10,0 C 10,4 C 17,3 km/h (3 Bft)
02.11.2023 11:00 11,2 C 87 % 987,7 hPa 0,6 l/m 11,2 km/h (2 Bft) W-NW 9,1 C 8,3 C 17,3 km/h (3 Bft)
02.11.2023 12:00 12,2 C 75 % 986,6 hPa 0,6 l/m 13,3 km/h (3 Bft) S-SO 7,9 C 8,5 C 25,6 km/h (4 Bft)
02.11.2023 13:00 12,2 C 74 % 986,3 hPa 0,0 l/m 12,2 km/h (2 Bft) S-SW 7,7 C 9,0 C 24,5 km/h (4 Bft)
02.11.2023 14:00 11,6 C 75 % 984,8 hPa 0,3 l/m 7,2 km/h (2 Bft) S-SO 7,3 C 11,1 C 11,2 km/h (2 Bft)
02.11.2023 15:00 11,9 C 74 % 983,8 hPa 0,0 l/m 6,1 km/h (2 Bft) S-SW 7,4 C 11,9 C 9,7 km/h (2 Bft)
02.11.2023 16:00 11,8 C 73 % 984,2 hPa 0,0 l/m 3,6 km/h (1 Bft) SO 7,1 C 11,8 C 7,2 km/h (2 Bft)
02.11.2023 17:00 11,7 C 75 % 983,1 hPa 0,0 l/m 3,6 km/h (1 Bft) S-SW 7,4 C 11,7 C 6,1 km/h (2 Bft)
02.11.2023 18:00 11,9 C 69 % 983,1 hPa 0,0 l/m 5,0 km/h (1 Bft) W 6,4 C 11,9 C 6,1 km/h (2 Bft)
02.11.2023 19:00 10,9 C 76 % 984,7 hPa 0,0 l/m 12,2 km/h (2 Bft) SW 6,8 C 7,5 C 17,3 km/h (3 Bft)
02.11.2023 20:00 9,9 C 82 % 985,0 hPa 0,0 l/m 11,2 km/h (2 Bft) SW 7,0 C 6,8 C 20,9 km/h (4 Bft)
02.11.2023 21:00 9,4 C 82 % 985,7 hPa 0,0 l/m 9,7 km/h (2 Bft) S-SW 6,5 C 7,1 C 14,8 km/h (3 Bft)
02.11.2023 22:00 8,9 C 82 % 985,3 hPa 0,0 l/m 5,0 km/h (1 Bft) S-SO 6,0 C 8,9 C 7,2 km/h (2 Bft)
02.11.2023 23:00 7,2 C 87 % 984,1 hPa 0,0 l/m 2,5 km/h (1 Bft) SW 5,2 C 7,2 C 3,6 km/h (1 Bft)
03.11.2023 00:00 8,9 C 81 % 985,5 hPa 0,0 l/m 6,1 km/h (2 Bft) S-SW 5,8 C 8,9 C 7,2 km/h (2 Bft)
03.11.2023 01:00 8,8 C 80 % 984,7 hPa 0,0 l/m 5,0 km/h (1 Bft) SW 5,5 C 8,8 C 9,7 km/h (2 Bft)
03.11.2023 02:00 7,3 C 84 % 984,4 hPa 0,0 l/m 2,5 km/h (1 Bft) N 4,8 C 7,3 C 3,6 km/h (1 Bft)
03.11.2023 03:00 7,1 C 86 % 985,1 hPa 0,0 l/m 0,0 km/h (0 Bft) W 4,9 C 7,1 C 0,0 km/h (0 Bft)
03.11.2023 04:00 8,0 C 83 % 985,0 hPa 0,0 l/m 2,5 km/h (1 Bft) W 5,3 C 8,0 C 3,6 km/h (1 Bft)
03.11.2023 05:00 7,4 C 87 % 984,9 hPa 0,0 l/m 1,1 km/h (1 Bft) W-SW 5,4 C 7,4 C 2,5 km/h (1 Bft)
03.11.2023 06:00 7,9 C 85 % 984,9 hPa 0,0 l/m 6,1 km/h (2 Bft) SW 5,5 C 7,9 C 9,7 km/h (2 Bft)
03.11.2023 07:00 8,0 C 85 % 985,2 hPa 0,0 l/m 7,2 km/h (2 Bft) W-SW 5,6 C 7,4 C 14,8 km/h (3 Bft)
03.11.2023 08:00 7,7 C 86 % 986,1 hPa 0,0 l/m 6,1 km/h (2 Bft) W-SW 5,5 C 7,7 C 7,2 km/h (2 Bft)
03.11.2023 09:00 7,5 C 87 % 987,0 hPa 0,0 l/m 7,2 km/h (2 Bft) W-SW 5,5 C 6,9 C 13,3 km/h (3 Bft)
03.11.2023 10:00 7,9 C 84 % 987,4 hPa 0,0 l/m 13,3 km/h (3 Bft) W-SW 5,4 C 3,4 C 18,4 km/h (3 Bft)
03.11.2023 11:00 8,4 C 82 % 987,6 hPa 0,0 l/m 11,2 km/h (2 Bft) SW 5,5 C 5,1 C 14,8 km/h (3 Bft)
03.11.2023 12:00 8,6 C 79 % 987,9 hPa 0,0 l/m 9,7 km/h (2 Bft) W-SW 5,2 C 6,2 C 17,3 km/h (3 Bft)
03.11.2023 13:00 8,7 C 79 % 987,7 hPa 0,0 l/m 13,3 km/h (3 Bft) W 5,3 C 4,4 C 18,4 km/h (3 Bft)
03.11.2023 14:00 9,2 C 79 % 987,5 hPa 0,0 l/m 6,1 km/h (2 Bft) W-SW 5,8 C 9,2 C 9,7 km/h (2 Bft)
03.11.2023 15:00 9,4 C 76 % 987,7 hPa 0,0 l/m 8,6 km/h (2 Bft) W-SW 5,4 C 7,8 C 11,2 km/h (2 Bft)
03.11.2023 16:00 9,8 C 74 % 988,0 hPa 0,0 l/m 8,6 km/h (2 Bft) W-SW 5,4 C 8,2 C 11,2 km/h (2 Bft)
03.11.2023 17:00 9,6 C 77 % 988,5 hPa 0,0 l/m 2,5 km/h (1 Bft) SO 5,8 C 9,6 C 3,6 km/h (1 Bft)
03.11.2023 18:00 8,0 C 82 % 989,3 hPa 0,0 l/m 1,1 km/h (1 Bft) SO 5,1 C 8,0 C 2,5 km/h (1 Bft)
03.11.2023 19:00 6,6 C 88 % 989,7 hPa 0,0 l/m 1,1 km/h (1 Bft) SO 4,8 C 6,6 C 2,5 km/h (1 Bft)
03.11.2023 20:00 7,3 C 79 % 990,1 hPa 0,0 l/m 3,6 km/h (1 Bft) O-NO 3,9 C 7,3 C 6,1 km/h (2 Bft)
03.11.2023 21:00 4,9 C 89 % 990,4 hPa 0,0 l/m 1,1 km/h (1 Bft) NO 3,2 C 4,9 C 2,5 km/h (1 Bft)
03.11.2023 22:00 4,1 C 91 % 990,6 hPa 0,0 l/m 2,5 km/h (1 Bft) SW 2,8 C 4,1 C 3,6 km/h (1 Bft)
03.11.2023 23:00 7,0 C 82 % 991,0 hPa 0,0 l/m 2,5 km/h (1 Bft) W-SW 4,1 C 7,0 C 6,1 km/h (2 Bft)
04.11.2023 00:00 8,3 C 78 % 991,0 hPa 0,0 l/m 13,3 km/h (3 Bft) S-SW 4,7 C 3,9 C 18,4 km/h (3 Bft)
04.11.2023 01:00 8,2 C 80 % 991,4 hPa 0,0 l/m 6,1 km/h (2 Bft) SW 5,0 C 8,2 C 9,7 km/h (2 Bft)
04.11.2023 02:00 8,4 C 80 % 991,3 hPa 0,0 l/m 6,1 km/h (2 Bft) W 5,2 C 8,4 C 13,3 km/h (3 Bft)
04.11.2023 03:00 8,7 C 77 % 991,1 hPa 0,0 l/m 8,6 km/h (2 Bft) S-SW 4,9 C 7,1 C 13,3 km/h (3 Bft)
04.11.2023 04:00 8,8 C 76 % 991,0 hPa 0,0 l/m 7,2 km/h (2 Bft) W-SW 4,8 C 8,2 C 11,2 km/h (2 Bft)
04.11.2023 05:00 8,5 C 76 % 990,5 hPa 0,0 l/m 8,6 km/h (2 Bft) W-SW 4,5 C 6,9 C 11,2 km/h (2 Bft)
04.11.2023 06:00 8,7 C 75 % 989,8 hPa 0,0 l/m 5,0 km/h (1 Bft) SW 4,5 C 8,7 C 9,7 km/h (2 Bft)
04.11.2023 07:00 8,5 C 74 % 988,6 hPa 0,0 l/m 1,1 km/h (1 Bft) S-SW 4,1 C 8,5 C 2,5 km/h (1 Bft)
04.11.2023 08:00 9,6 C 68 % 988,0 hPa 0,0 l/m 5,0 km/h (1 Bft) SO 4,0 C 9,6 C 7,2 km/h (2 Bft)
04.11.2023 09:00 10,0 C 69 % 986,8 hPa 0,0 l/m 5,0 km/h (1 Bft) SO 4,6 C 10,0 C 7,2 km/h (2 Bft)
04.11.2023 10:00 10,5 C 70 % 985,8 hPa 0,0 l/m 3,6 km/h (1 Bft) SO 5,3 C 10,5 C 3,6 km/h (1 Bft)
04.11.2023 11:00 10,9 C 66 % 984,7 hPa 0,0 l/m 2,5 km/h (1 Bft) S 4,8 C 10,9 C 3,6 km/h (1 Bft)
04.11.2023 12:00 11,1 C 65 % 984,2 hPa 0,0 l/m 14,8 km/h (3 Bft) S-SO 4,8 C 6,5 C 20,9 km/h (4 Bft)
04.11.2023 13:00 10,9 C 68 % 982,0 hPa 0,0 l/m 9,7 km/h (2 Bft) S-SW 5,2 C 8,8 C 13,3 km/h (3 Bft)
04.11.2023 14:00 11,2 C 67 % 981,2 hPa 0,0 l/m 11,2 km/h (2 Bft) W-SW 5,3 C 8,3 C 14,8 km/h (3 Bft)
04.11.2023 15:00 11,7 C 70 % 980,1 hPa 0,0 l/m 7,2 km/h (2 Bft) W-SW 6,4 C 11,2 C 11,2 km/h (2 Bft)
04.11.2023 16:00 12,4 C 74 % 980,6 hPa 0,0 l/m 8,6 km/h (2 Bft) S 7,9 C 11,0 C 13,3 km/h (3 Bft)
04.11.2023 17:00 12,5 C 73 % 979,2 hPa 0,6 l/m 11,2 km/h (2 Bft) W-SW 7,8 C 9,8 C 17,3 km/h (3 Bft)
04.11.2023 18:00 13,8 C 63 % 978,9 hPa 0,0 l/m 27,0 km/h (4 Bft) S 6,9 C 6,6 C 35,6 km/h (5 Bft)
04.11.2023 19:00 13,5 C 62 % 979,0 hPa 0,0 l/m 12,2 km/h (2 Bft) S 6,4 C 10,5 C 22,0 km/h (4 Bft)
04.11.2023 20:00 13,0 C 69 % 978,6 hPa 0,0 l/m 14,8 km/h (3 Bft) SW 7,4 C 8,8 C 29,5 km/h (5 Bft)
04.11.2023 21:00 12,9 C 68 % 979,1 hPa 0,0 l/m 14,8 km/h (3 Bft) S-SW 7,1 C 8,7 C 22,0 km/h (4 Bft)
04.11.2023 22:00 11,1 C 81 % 979,2 hPa 0,3 l/m 9,7 km/h (2 Bft) SW 8,0 C 9,0 C 17,3 km/h (3 Bft)
04.11.2023 23:00 11,9 C 75 % 979,4 hPa 0,0 l/m 7,2 km/h (2 Bft) W 7,6 C 11,4 C 13,3 km/h (3 Bft)
05.11.2023 00:00 12,5 C 69 % 979,2 hPa 0,0 l/m 9,7 km/h (2 Bft) W 7,0 C 10,5 C 17,3 km/h (3 Bft)
05.11.2023 01:00 12,8 C 68 % 978,8 hPa 0,3 l/m 13,3 km/h (3 Bft) W-SW 7,0 C 9,2 C 20,9 km/h (4 Bft)
05.11.2023 02:00 13,3 C 63 % 977,6 hPa 0,0 l/m 13,3 km/h (3 Bft) S-SO 6,4 C 9,8 C 29,5 km/h (5 Bft)
05.11.2023 03:00 14,2 C 59 % 976,5 hPa 0,0 l/m 13,3 km/h (3 Bft) SW 6,3 C 10,8 C 17,3 km/h (3 Bft)
05.11.2023 04:00 14,1 C 58 % 975,8 hPa 0,0 l/m 15,8 km/h (3 Bft) W-SW 6,0 C 9,8 C 24,5 km/h (4 Bft)
05.11.2023 05:00 12,8 C 68 % 976,4 hPa 0,0 l/m 11,2 km/h (2 Bft) S-SW 7,0 C 10,1 C 20,9 km/h (4 Bft)
05.11.2023 06:00 12,3 C 72 % 976,7 hPa 0,0 l/m 12,2 km/h (2 Bft) W-SW 7,4 C 9,1 C 17,3 km/h (3 Bft)
05.11.2023 07:00 11,7 C 76 % 976,8 hPa 0,0 l/m 9,7 km/h (2 Bft) SW 7,6 C 9,6 C 13,3 km/h (3 Bft)
05.11.2023 08:00 12,5 C 69 % 977,2 hPa 0,0 l/m 22,0 km/h (4 Bft) W-SW 7,0 C 6,0 C 29,5 km/h (5 Bft)
05.11.2023 09:00 11,5 C 75 % 978,7 hPa 0,0 l/m 15,8 km/h (3 Bft) S-SW 7,2 C 6,6 C 25,6 km/h (4 Bft)
05.11.2023 10:00 11,1 C 78 % 980,1 hPa 0,0 l/m 9,7 km/h (2 Bft) N 7,4 C 9,0 C 14,8 km/h (3 Bft)
Min-Datum _ 03.11.23 01.11.23 05.11.23 - 30.10.23 - 03.11.23 03.11.23 30.10.23
_ Min-Zeit 22:13 16:13 04:13 - 00:13 - 22:13 10:13 00:13
Minimum _ 4,1 C 51 % 975,8 hPa - 0,0 km/h (0 Bft) - 2,8 C 3,4 C 0,0 km/h (0 Bft)
Max-Datum _ 01.11.23 30.10.23 31.10.23 30.10.23 04.11.23 - 30.10.23 01.11.23 04.11.23
_ Max-Zeit 14:13 03:13 22:13 20:13 18:13 - 15:13 15:13 18:13
Maximum _ 17,1 C 98 % 1008,1 hPa 2,7 l/m 27,0 km/h
S (4 Bft)
- 13,2 C 16,4 C 35,6 km/h
S (5 Bft)
Durchschnitt _ 11,1 C 81 % 992,8 hPa #19,2 l/m 6,1 km/h (2 Bft) W-SW 7,8 C 10,1 C 9,8 km/h (2 Bft)
www.sexauwetter.de